Time;durP1;ratioP1;P1;durP2;ratioP2;P2;SDS_P1;SDS_P2;PMS_P1;PMS_P2;Temp;Humidity;BMP_temperature;BMP_pressure;BME280_temperature;BME280_humidity;BME280_pressure;Samples;Min_cycle;Max_cycle;Signal;HPM_P1;HPM_P2
2024/03/06 00:00:20;;;;;;;13.80;8.90;;;;;;;5.09;100.00;100276.73;107764;1259;67485;-55
2024/03/06 00:02:48;;;;;;;16.30;9.60;;;;;;;5.04;100.00;100276.46;105968;1266;72746;-57
2024/03/06 00:05:15;;;;;;;15.90;10.10;;;;;;;5.02;100.00;100278.98;105896;1273;61432;-56
2024/03/06 00:07:43;;;;;;;17.60;9.80;;;;;;;5.01;100.00;100280.80;108553;1256;58668;-55
2024/03/06 00:10:10;;;;;;;13.10;9.30;;;;;;;4.92;100.00;100281.48;105824;1257;72558;-56
2024/03/06 00:12:37;;;;;;;14.20;9.30;;;;;;;4.87;100.00;100284.41;105899;1261;66441;-56
2024/03/06 00:15:05;;;;;;;20.80;10.50;;;;;;;4.87;100.00;100285.30;105870;1259;71551;-56
2024/03/06 00:17:33;;;;;;;18.60;9.70;;;;;;;4.88;100.00;100287.59;105827;1257;60556;-55
2024/03/06 00:20:00;;;;;;;15.00;8.90;;;;;;;4.90;100.00;100285.61;105794;1257;61013;-57
2024/03/06 00:22:28;;;;;;;22.10;10.20;;;;;;;4.89;100.00;100282.97;105933;1263;74527;-55
2024/03/06 00:24:55;;;;;;;14.30;8.40;;;;;;;4.82;100.00;100284.33;105851;1262;66005;-55
2024/03/06 00:27:22;;;;;;;14.30;8.90;;;;;;;4.76;100.00;100285.15;105858;1262;73602;-55
2024/03/06 00:29:49;;;;;;;17.80;8.60;;;;;;;4.76;100.00;100283.00;105869;1267;60348;-55
2024/03/06 00:32:17;;;;;;;14.90;7.80;;;;;;;4.78;100.00;100279.92;105883;1259;62039;-53
2024/03/06 00:34:44;;;;;;;12.10;7.10;;;;;;;4.82;100.00;100280.25;105835;1256;73797;-55
2024/03/06 00:37:12;;;;;;;15.30;8.40;;;;;;;4.83;100.00;100277.38;108793;1257;67586;-57
2024/03/06 00:39:40;;;;;;;12.90;7.60;;;;;;;4.83;100.00;100279.70;108799;1257;71422;-55
2024/03/06 00:42:08;;;;;;;16.30;9.00;;;;;;;4.80;100.00;100278.13;108742;1257;58487;-54
2024/03/06 00:44:36;;;;;;;15.00;8.60;;;;;;;4.78;100.00;100279.92;108791;1259;59037;-56
2024/03/06 00:47:03;;;;;;;14.80;9.00;;;;;;;4.74;100.00;100281.63;108792;1257;73925;-55
2024/03/06 00:49:30;;;;;;;17.40;8.70;;;;;;;4.73;100.00;100284.29;108865;1256;67239;-56
2024/03/06 00:51:58;;;;;;;15.30;9.50;;;;;;;4.72;100.00;100289.83;106745;1258;71363;-56
2024/03/06 00:54:25;;;;;;;13.00;7.70;;;;;;;4.66;100.00;100289.75;105826;1260;60845;-55
2024/03/06 00:56:52;;;;;;;11.10;7.00;;;;;;;4.59;100.00;100292.16;105788;1254;60448;-56
2024/03/06 00:59:20;;;;;;;17.00;7.70;;;;;;;4.54;100.00;100292.59;105861;1259;72636;-55
2024/03/06 01:01:48;;;;;;;11.70;7.60;;;;;;;4.50;100.00;100292.83;105868;1256;65754;-55
2024/03/06 01:04:16;;;;;;;16.80;7.50;;;;;;;4.46;100.00;100297.51;105881;1257;72512;-54
2024/03/06 01:06:43;;;;;;;12.30;8.00;;;;;;;4.46;100.00;100297.34;105963;1254;62035;-57
2024/03/06 01:09:11;;;;;;;15.20;8.40;;;;;;;4.46;100.00;100304.27;106004;1254;60416;-55
2024/03/06 01:11:38;;;;;;;15.70;8.60;;;;;;;4.44;100.00;100302.86;105982;1256;73899;-55
2024/03/06 01:14:05;;;;;;;16.30;7.90;;;;;;;4.42;100.00;100298.45;105994;1254;66891;-54
2024/03/06 01:16:33;;;;;;;10.50;8.10;;;;;;;4.39;100.00;100304.20;108570;1256;72747;-56
2024/03/06 01:19:00;;;;;;;11.10;7.30;;;;;;;4.36;100.00;100303.16;106153;1254;60422;-54
2024/03/06 01:21:28;;;;;;;13.10;8.00;;;;;;;4.33;100.00;100306.95;106077;1259;61210;-55
2024/03/06 01:23:56;;;;;;;12.10;7.70;;;;;;;4.32;100.00;100307.14;106128;1262;73793;-54
2024/03/06 01:26:23;;;;;;;14.60;6.80;;;;;;;4.30;100.00;100311.25;106150;1259;67387;-55
2024/03/06 01:28:51;;;;;;;16.60;6.70;;;;;;;4.28;100.00;100310.74;106121;1254;70490;-58
2024/03/06 01:31:18;;;;;;;12.30;7.80;;;;;;;4.27;100.00;100310.75;106408;1259;60815;-55
2024/03/06 01:33:46;;;;;;;18.60;7.90;;;;;;;4.31;100.00;100310.35;106056;1260;60570;-55
2024/03/06 01:36:13;;;;;;;11.20;7.10;;;;;;;4.33;100.00;100307.14;106010;1270;74011;-53
2024/03/06 01:38:41;;;;;;;18.20;8.30;;;;;;;4.33;100.00;100308.56;106126;1260;66427;-55
2024/03/06 01:41:08;;;;;;;20.10;9.30;;;;;;;4.26;100.00;100305.45;106161;1261;72930;-55
2024/03/06 01:43:39;;;;;;;13.90;8.10;;;;;;;4.19;100.00;100307.84;106085;1259;61425;-56
2024/03/06 01:46:07;;;;;;;14.80;8.20;;;;;;;4.14;100.00;100308.80;106052;1259;60495;-57
2024/03/06 01:48:35;;;;;;;13.80;8.80;;;;;;;4.09;100.00;100308.33;106114;1259;74249;-56
2024/03/06 01:51:04;;;;;;;14.20;7.60;;;;;;;4.06;100.00;100308.02;105846;1254;67240;-57
2024/03/06 01:53:32;;;;;;;15.50;9.20;;;;;;;4.04;100.00;100311.96;106129;1260;74351;-55
2024/03/06 01:56:00;;;;;;;14.10;7.50;;;;;;;3.99;100.00;100310.42;106039;1260;60610;-55
2024/03/06 01:58:27;;;;;;;11.50;7.30;;;;;;;3.96;100.00;100313.48;106466;1259;60343;-56
2024/03/06 02:00:55;;;;;;;16.50;8.30;;;;;;;3.96;100.00;100313.30;106031;1254;73946;-57
2024/03/06 02:03:22;;;;;;;12.80;7.10;;;;;;;3.97;100.00;100312.23;106080;1260;65646;-55
2024/03/06 02:05:50;;;;;;;10.50;7.30;;;;;;;3.99;100.00;100310.60;105969;1261;72447;-58
2024/03/06 02:08:17;;;;;;;13.80;8.50;;;;;;;3.99;100.00;100313.98;106461;1254;60581;-54
2024/03/06 02:10:46;;;;;;;15.50;8.10;;;;;;;4.00;100.00;100314.84;106227;1260;60419;-57
2024/03/06 02:13:14;;;;;;;13.10;7.30;;;;;;;4.00;100.00;100318.56;106268;1259;73304;-56
2024/03/06 02:15:45;;;;;;;11.80;8.70;;;;;;;4.01;100.00;100320.87;106528;1256;65571;-56
2024/03/06 02:18:12;;;;;;;16.90;9.10;;;;;;;4.00;100.00;100326.58;106297;1259;72731;-55
2024/03/06 02:20:40;;;;;;;10.70;7.50;;;;;;;3.99;100.00;100330.34;106052;1258;60613;-56
2024/03/06 02:23:08;;;;;;;11.50;7.70;;;;;;;3.99;100.00;100331.04;106099;1254;60637;-56
2024/03/06 02:25:35;;;;;;;11.20;9.00;;;;;;;3.98;100.00;100333.00;106020;1259;73902;-57
2024/03/06 02:28:06;;;;;;;14.00;8.30;;;;;;;3.94;100.00;100334.80;105993;1259;65538;-56
2024/03/06 02:30:36;;;;;;;18.30;9.00;;;;;;;3.93;100.00;100335.52;106442;1259;71529;-56
2024/03/06 02:33:09;;;;;;;14.80;8.80;;;;;;;3.89;100.00;100336.49;107365;1256;61017;-57
2024/03/06 02:35:37;;;;;;;22.40;9.10;;;;;;;3.83;100.00;100336.73;106040;1272;60481;-56
2024/03/06 02:38:05;;;;;;;14.20;8.70;;;;;;;3.79;100.00;100340.67;106026;1256;75419;-56
2024/03/06 02:40:32;;;;;;;14.60;8.20;;;;;;;3.79;100.00;100344.58;106119;1260;65012;-56
2024/03/06 02:43:00;;;;;;;17.40;9.90;;;;;;;3.79;100.00;100345.11;105899;1254;72324;-56
2024/03/06 02:45:27;;;;;;;12.50;9.70;;;;;;;3.78;100.00;100348.48;105966;1257;61460;-56
2024/03/06 02:47:55;;;;;;;18.00;10.40;;;;;;;3.77;100.00;100349.04;106093;1254;60468;-53
2024/03/06 02:50:23;;;;;;;17.80;10.60;;;;;;;3.75;100.00;100355.45;106079;1260;72423;-55
2024/03/06 02:52:53;;;;;;;19.10;10.70;;;;;;;3.72;100.00;100357.63;105954;1259;66703;-53
2024/03/06 02:55:22;;;;;;;16.60;11.50;;;;;;;3.69;100.00;100356.40;109032;1254;72703;-54
2024/03/06 02:57:49;;;;;;;20.10;11.60;;;;;;;3.69;100.00;100359.77;107422;1255;61521;-53
2024/03/06 03:00:16;;;;;;;19.60;12.50;;;;;;;3.67;100.00;100362.27;106124;1254;60843;-55
2024/03/06 03:02:44;;;;;;;20.80;11.80;;;;;;;3.65;100.00;100361.80;105989;1260;72664;-54
2024/03/06 03:05:11;;;;;;;16.50;10.90;;;;;;;3.61;100.00;100364.30;106018;1262;65288;-55
2024/03/06 03:07:38;;;;;;;19.00;10.90;;;;;;;3.58;100.00;100361.48;108880;1255;73100;-55
2024/03/06 03:10:06;;;;;;;20.90;12.20;;;;;;;3.55;100.00;100365.98;106272;1254;60551;-55
2024/03/06 03:12:34;;;;;;;18.00;11.50;;;;;;;3.57;100.00;100366.13;108940;1254;59406;-54
2024/03/06 03:15:01;;;;;;;16.90;13.10;;;;;;;3.61;100.00;100362.35;108916;1254;73868;-55
2024/03/06 03:17:28;;;;;;;19.70;13.20;;;;;;;3.65;100.00;100363.56;108969;1259;67563;-54
2024/03/06 03:19:56;;;;;;;20.30;13.70;;;;;;;3.69;100.00;100367.05;108897;1254;72721;-55
2024/03/06 03:25:12;;;;;;;21.20;14.00;;;;;;;3.70;100.00;100382.30;102609;1295;601096;-55
2024/03/06 03:27:40;;;;;;;26.40;15.90;;;;;;;3.65;100.00;100386.27;108131;1267;58018;-53
2024/03/06 03:30:08;;;;;;;27.50;16.10;;;;;;;3.60;100.00;100386.14;108182;1268;60094;-53
2024/03/06 03:32:36;;;;;;;20.00;15.00;;;;;;;3.54;100.00;100382.66;108165;1267;72246;-54
2024/03/06 03:35:05;;;;;;;23.80;15.50;;;;;;;3.53;100.00;100381.77;108133;1268;65779;-54
2024/03/06 03:37:32;;;;;;;24.20;14.90;;;;;;;3.52;100.00;100380.90;108305;1268;72621;-52
2024/03/06 03:40:00;;;;;;;22.30;13.90;;;;;;;3.49;100.00;100380.39;105448;1271;59449;-53
2024/03/06 03:42:27;;;;;;;25.00;16.10;;;;;;;3.45;100.00;100382.58;105289;1270;59242;-53
2024/03/06 03:44:55;;;;;;;23.70;15.40;;;;;;;3.44;100.00;100382.73;105219;1271;72345;-53
2024/03/06 03:47:22;;;;;;;22.00;15.90;;;;;;;3.44;100.00;100384.87;105238;1271;67082;-53
2024/03/06 03:49:49;;;;;;;26.20;16.60;;;;;;;3.41;100.00;100386.34;105290;1268;71086;-54
2024/03/06 03:52:33;;;;;;;25.00;15.20;;;;;;;3.38;100.00;100386.36;105816;1267;59762;-57
2024/03/06 03:55:00;;;;;;;23.50;15.80;;;;;;;3.38;100.00;100384.77;105217;1269;60516;-53
2024/03/06 03:57:28;;;;;;;24.10;16.60;;;;;;;3.36;100.00;100386.02;105326;1266;71885;-52
2024/03/06 03:59:55;;;;;;;23.40;15.50;;;;;;;3.33;100.00;100388.71;105273;1270;65746;-54
2024/03/06 04:02:22;;;;;;;33.90;15.30;;;;;;;3.27;100.00;100392.66;108418;1269;71353;-57
2024/03/06 04:04:50;;;;;;;30.10;16.60;;;;;;;3.24;100.00;100397.11;108263;1265;60824;-55
2024/03/06 04:07:18;;;;;;;28.30;17.10;;;;;;;3.23;100.00;100396.61;106800;1268;60087;-55
2024/03/06 04:09:47;;;;;;;26.50;15.80;;;;;;;3.24;100.00;100400.48;105227;1271;71621;-57
2024/03/06 04:12:14;;;;;;;26.70;16.20;;;;;;;3.26;100.00;100407.21;105217;1272;65976;-58
2024/03/06 04:14:42;;;;;;;29.20;17.40;;;;;;;3.29;100.00;100413.23;105265;1268;71045;-55
2024/03/06 04:17:09;;;;;;;29.80;17.10;;;;;;;3.28;100.00;100413.77;105717;1265;59654;-56
2024/03/06 04:19:36;;;;;;;28.30;17.70;;;;;;;3.25;100.00;100418.56;106075;1263;60624;-58
2024/03/06 04:22:04;;;;;;;22.20;15.60;;;;;;;3.22;100.00;100423.05;105756;1265;71820;-54
2024/03/06 04:24:31;;;;;;;24.80;15.70;;;;;;;3.20;100.00;100425.89;105812;1272;66258;-55
2024/03/06 04:26:58;;;;;;;22.70;14.60;;;;;;;3.17;100.00;100427.85;105795;1263;72706;-54
2024/03/06 04:29:26;;;;;;;24.90;16.00;;;;;;;3.17;100.00;100427.85;105709;1272;60114;-53
2024/03/06 04:31:53;;;;;;;23.80;15.50;;;;;;;3.20;100.00;100429.44;105762;1264;60541;-55
2024/03/06 04:34:20;;;;;;;23.60;15.80;;;;;;;3.24;100.00;100430.45;106194;1263;73098;-54
2024/03/06 04:36:47;;;;;;;23.70;16.60;;;;;;;3.29;100.00;100432.38;105736;1259;67729;-55
2024/03/06 04:39:15;;;;;;;28.30;17.30;;;;;;;3.28;100.00;100434.87;105841;1259;72708;-55
2024/03/06 04:41:46;;;;;;;24.90;17.20;;;;;;;3.21;100.00;100438.12;105822;1262;59773;-56
2024/03/06 04:44:14;;;;;;;28.60;19.00;;;;;;;3.17;100.00;100443.46;105881;1261;60060;-54
2024/03/06 04:46:42;;;;;;;36.50;19.90;;;;;;;3.08;100.00;100443.89;106089;1261;71884;-54
2024/03/06 04:49:09;;;;;;;30.60;19.70;;;;;;;3.00;100.00;100450.14;105973;1254;67269;-53
2024/03/06 04:51:36;;;;;;;30.70;19.30;;;;;;;2.96;100.00;100453.91;105901;1262;71264;-53
2024/03/06 04:54:04;;;;;;;26.60;17.90;;;;;;;2.92;100.00;100453.39;105889;1261;60647;-51
2024/03/06 04:56:31;;;;;;;26.90;17.60;;;;;;;2.90;100.00;100455.36;106003;1261;59808;-55
2024/03/06 04:59:02;;;;;;;26.00;17.20;;;;;;;2.88;100.00;100458.92;106000;1261;76388;-54
2024/03/06 05:01:30;;;;;;;31.80;19.90;;;;;;;2.90;100.00;100464.20;105932;1258;65673;-52
2024/03/06 05:03:57;;;;;;;30.70;19.50;;;;;;;2.92;100.00;100468.28;105955;1262;72824;-55
2024/03/06 05:06:42;;;;;;;29.00;19.50;;;;;;;2.94;100.00;100464.38;105968;1257;59749;-54
2024/03/06 05:09:27;;;;;;;25.00;17.30;;;;;;;2.96;100.00;100471.81;105932;1256;60542;-56
2024/03/06 05:12:12;;;;;;;36.60;22.30;;;;;;;2.98;100.00;100470.20;105941;1268;73882;-54
2024/03/06 05:14:57;;;;;;;29.60;20.80;;;;;;;2.96;100.00;100472.17;105940;1261;66370;-55
2024/03/06 05:17:43;;;;;;;33.80;20.30;;;;;;;2.90;100.00;100472.90;105983;1268;71094;-56
2024/03/06 05:20:30;;;;;;;25.00;18.70;;;;;;;2.86;100.00;100475.41;105880;1262;60648;-56
2024/03/06 05:23:17;;;;;;;33.30;21.20;;;;;;;2.81;100.00;100470.65;105881;1260;59743;-54
2024/03/06 05:26:02;;;;;;;30.30;20.00;;;;;;;2.78;100.00;100472.09;105850;1256;73683;-57
2024/03/06 05:28:47;;;;;;;27.10;17.70;;;;;;;2.74;100.00;100475.64;105850;1262;66995;-54
2024/03/06 05:31:32;;;;;;;29.90;21.50;;;;;;;2.71;100.00;100474.61;105942;1261;72682;-57
2024/03/06 05:34:17;;;;;;;30.20;20.10;;;;;;;2.70;100.00;100476.21;105834;1256;59685;-54
2024/03/06 05:37:03;;;;;;;29.90;20.60;;;;;;;2.72;100.00;100476.54;105932;1262;59792;-57
2024/03/06 05:39:48;;;;;;;33.30;22.30;;;;;;;2.74;100.00;100481.48;105994;1270;73522;-54
2024/03/06 05:42:33;;;;;;;31.30;20.70;;;;;;;2.73;100.00;100482.91;106122;1261;66768;-56
2024/03/06 05:45:18;;;;;;;;;;;;;;;2.73;100.00;100483.80;105970;1260;73733;-54
2024/03/06 05:48:04;;;;;;;31.60;18.60;;;;;;;2.74;100.00;100488.76;105869;1271;59750;-54
2024/03/06 05:50:48;;;;;;;29.40;19.20;;;;;;;2.75;100.00;100487.88;105949;1262;60553;-52
2024/03/06 05:53:38;;;;;;;27.00;19.30;;;;;;;2.78;100.00;100493.00;105832;1263;73248;-54
2024/03/06 05:56:22;;;;;;;29.10;17.30;;;;;;;2.83;100.00;100492.44;105985;1261;65813;-55
2024/03/06 05:59:08;;;;;;;29.10;16.50;;;;;;;2.87;100.00;100494.92;105863;1260;71518;-54
2024/03/06 06:01:35;;;;;;;32.00;18.80;;;;;;;2.89;100.00;100493.80;108841;1257;59762;-56
2024/03/06 06:04:03;;;;;;;29.40;19.50;;;;;;;2.88;100.00;100495.43;108809;1256;58998;-59
2024/03/06 06:06:34;;;;;;;26.30;16.40;;;;;;;2.90;100.00;100498.77;107978;1260;73101;-54
2024/03/06 06:09:04;;;;;;;27.70;18.70;;;;;;;2.91;100.00;100500.55;105863;1262;67091;-54
2024/03/06 06:11:35;;;;;;;29.10;19.40;;;;;;;2.89;100.00;100499.15;105961;1271;71785;-54
2024/03/06 06:14:03;;;;;;;34.70;21.10;;;;;;;2.83;100.00;100503.42;107237;1259;60294;-54
2024/03/06 06:16:37;;;;;;;31.70;21.40;;;;;;;2.79;100.00;100505.41;108787;1258;60458;-55
2024/03/06 06:19:05;;;;;;;31.50;20.40;;;;;;;2.76;100.00;100508.96;108781;1257;73189;-54
2024/03/06 06:21:32;;;;;;;31.10;20.20;;;;;;;2.69;100.00;100514.31;108874;1261;65675;-54
2024/03/06 06:24:00;;;;;;;34.30;20.60;;;;;;;2.65;100.00;100519.45;106170;1257;74336;-54
2024/03/06 06:26:27;;;;;;;31.40;19.60;;;;;;;2.65;100.00;100521.94;105987;1262;59830;-57
2024/03/06 06:28:54;;;;;;;28.60;20.30;;;;;;;2.61;100.00;100526.22;105935;1262;59567;-53
2024/03/06 06:31:22;;;;;;;30.00;20.70;;;;;;;2.58;100.00;100528.35;105904;1257;71906;-51
2024/03/06 06:33:49;;;;;;;35.40;20.10;;;;;;;2.53;100.00;100529.63;105857;1260;66840;-54
2024/03/06 06:36:17;;;;;;;30.40;19.20;;;;;;;2.49;100.00;100533.33;105846;1279;72791;-54
2024/03/06 06:38:46;;;;;;;34.60;20.20;;;;;;;2.45;100.00;100539.21;105879;1262;59627;-54
2024/03/06 06:41:14;;;;;;;33.00;21.00;;;;;;;2.40;100.00;100545.41;105924;1270;59718;-57
2024/03/06 06:43:42;;;;;;;33.50;21.90;;;;;;;2.34;100.00;100548.98;108929;1256;75296;-56
2024/03/06 06:46:09;;;;;;;34.70;19.40;;;;;;;2.28;100.00;100547.77;108034;1262;65945;-54
2024/03/06 06:48:36;;;;;;;33.60;19.90;;;;;;;2.25;100.00;100552.89;105884;1261;71454;-53
2024/03/06 06:51:04;;;;;;;30.80;19.90;;;;;;;2.25;100.00;100554.48;105898;1261;59694;-55
2024/03/06 06:53:31;;;;;;;33.60;19.10;;;;;;;2.28;100.00;100556.25;105916;1271;60497;-55
2024/03/06 06:55:59;;;;;;;32.60;20.00;;;;;;;2.32;100.00;100553.92;106047;1263;74936;-54
2024/03/06 06:58:29;;;;;;;32.10;20.90;;;;;;;2.35;100.00;100558.20;105952;1265;66067;-55
2024/03/06 07:00:57;;;;;;;29.50;20.50;;;;;;;2.43;100.00;100552.32;105913;1255;71236;-54
2024/03/06 07:03:29;;;;;;;29.30;20.90;;;;;;;2.52;100.00;100555.48;106744;1264;60594;-55
2024/03/06 07:05:57;;;;;;;37.80;23.40;;;;;;;2.59;100.00;100554.39;105999;1262;59650;-55
2024/03/06 07:08:24;;;;;;;34.10;22.50;;;;;;;2.64;100.00;100555.96;105930;1261;74495;-54
2024/03/06 07:10:54;;;;;;;33.50;21.50;;;;;;;2.66;100.00;100558.44;106202;1260;65748;-53
2024/03/06 07:13:22;;;;;;;39.50;25.00;;;;;;;2.69;100.00;100559.69;106152;1260;72792;-57
2024/03/06 07:15:49;;;;;;;38.50;24.20;;;;;;;2.68;100.00;100560.74;105926;1269;62328;-53
2024/03/06 07:18:17;;;;;;;33.30;21.90;;;;;;;2.61;100.00;100562.90;105935;1271;59713;-55
2024/03/06 07:20:44;;;;;;;31.80;21.60;;;;;;;2.55;100.00;100570.87;105962;1257;72160;-55
2024/03/06 07:23:12;;;;;;;36.30;22.70;;;;;;;2.54;100.00;100577.46;106180;1260;69320;-53
2024/03/06 07:25:39;;;;;;;42.60;24.10;;;;;;;2.51;100.00;100575.15;105921;1261;72735;-54
2024/03/06 07:28:06;;;;;;;36.90;23.90;;;;;;;2.50;100.00;100580.46;105923;1261;59652;-55
2024/03/06 07:30:34;;;;;;;37.30;23.10;;;;;;;2.55;100.00;100580.64;105931;1261;60479;-53
2024/03/06 07:33:02;;;;;;;40.90;23.50;;;;;;;2.54;100.00;100577.63;105941;1257;72569;-54
2024/03/06 07:35:29;;;;;;;39.70;25.30;;;;;;;2.54;100.00;100585.25;105855;1261;67649;-55
2024/03/06 07:37:57;;;;;;;40.70;24.20;;;;;;;2.53;100.00;100586.49;105813;1259;71488;-56
2024/03/06 07:40:25;;;;;;;45.60;24.30;;;;;;;2.43;100.00;100590.76;105925;1258;60529;-57
2024/03/06 07:42:52;;;;;;;35.80;22.70;;;;;;;2.36;100.00;100591.48;106276;1256;60411;-55
2024/03/06 07:45:20;;;;;;;42.40;23.90;;;;;;;2.37;100.00;100590.96;105798;1263;76027;-55
2024/03/06 07:47:48;;;;;;;36.30;23.70;;;;;;;2.35;100.00;100593.96;106374;1261;66921;-54
2024/03/06 07:50:19;;;;;;;39.40;22.40;;;;;;;2.30;100.00;100595.21;105729;1257;72447;-58
2024/03/06 07:52:47;;;;;;;33.20;20.80;;;;;;;2.31;100.00;100593.60;105725;1263;60902;-54
2024/03/06 07:55:14;;;;;;;35.00;21.70;;;;;;;2.35;100.00;100597.69;105700;1260;60722;-54
2024/03/06 07:57:41;;;;;;;37.50;21.60;;;;;;;2.41;100.00;100599.27;105889;1261;73880;-55
2024/03/06 08:00:19;;;;;;;34.80;21.00;;;;;;;2.50;100.00;100601.19;105892;1258;67194;-55
2024/03/06 08:02:50;;;;;;;34.30;23.10;;;;;;;2.59;100.00;100602.77;105896;1265;73849;-55
2024/03/06 08:05:17;;;;;;;33.40;22.50;;;;;;;2.62;100.00;100602.77;105902;1258;60406;-54
2024/03/06 08:07:45;;;;;;;38.70;24.50;;;;;;;2.60;100.00;100601.88;106088;1257;60440;-54
2024/03/06 08:10:13;;;;;;;36.80;23.50;;;;;;;2.54;100.00;100600.48;106307;1261;73892;-56
2024/03/06 08:12:41;;;;;;;34.10;22.20;;;;;;;2.52;100.00;100597.48;105972;1263;66526;-54
2024/03/06 08:15:13;;;;;;;37.50;24.20;;;;;;;2.53;100.00;100604.73;105945;1268;71455;-53
2024/03/06 08:17:43;;;;;;;43.00;24.90;;;;;;;2.50;100.00;100597.12;105899;1269;60301;-54
2024/03/06 08:20:12;;;;;;;38.40;23.00;;;;;;;2.49;100.00;100598.18;106502;1257;60412;-54
2024/03/06 08:22:40;;;;;;;34.20;21.10;;;;;;;2.54;100.00;100600.48;106440;1257;72273;-53
2024/03/06 08:25:08;;;;;;;38.10;21.30;;;;;;;2.58;100.00;100596.92;105905;1261;65775;-53
2024/03/06 08:27:36;;;;;;;33.50;21.10;;;;;;;2.56;100.00;100598.16;105743;1267;70815;-53
2024/03/06 08:30:04;;;;;;;33.30;20.80;;;;;;;2.56;100.00;100599.58;105826;1257;60481;-54
2024/03/06 08:32:35;;;;;;;32.60;22.20;;;;;;;2.63;100.00;100602.93;107063;1258;60506;-53
2024/03/06 08:35:07;;;;;;;42.20;23.60;;;;;;;2.72;100.00;100596.35;107259;1260;72706;-54
2024/03/06 08:37:34;;;;;;;35.60;19.70;;;;;;;2.77;100.00;100597.41;106365;1262;65665;-54
2024/03/06 08:40:02;;;;;;;38.00;22.40;;;;;;;2.78;100.00;100598.46;105934;1257;72711;-52
2024/03/06 08:42:29;;;;;;;38.00;23.00;;;;;;;2.75;100.00;100602.72;105777;1265;61206;-54
2024/03/06 08:44:57;;;;;;;37.80;24.20;;;;;;;2.73;100.00;100602.71;105860;1258;60778;-55
2024/03/06 08:47:24;;;;;;;38.30;23.40;;;;;;;2.78;100.00;100604.30;108503;1258;72965;-55
2024/03/06 08:49:52;;;;;;;33.00;20.40;;;;;;;2.82;100.00;100606.05;105806;1257;65835;-55
2024/03/06 08:52:20;;;;;;;42.10;25.10;;;;;;;2.85;100.00;100602.34;105814;1263;71452;-56
2024/03/06 08:54:48;;;;;;;45.50;24.90;;;;;;;2.89;100.00;100605.70;106053;1257;61750;-55
2024/03/06 08:57:16;;;;;;;37.20;24.80;;;;;;;2.93;100.00;100606.91;105778;1260;60467;-59
2024/03/06 08:59:43;;;;;;;39.70;23.50;;;;;;;3.02;100.00;100605.46;105814;1257;72646;-56
2024/03/06 09:02:15;;;;;;;42.50;24.40;;;;;;;3.14;100.00;100604.34;108760;1257;65823;-56
2024/03/06 09:04:43;;;;;;;35.10;22.70;;;;;;;3.23;100.00;100606.77;108677;1257;72728;-56
2024/03/06 09:07:10;;;;;;;36.60;21.50;;;;;;;3.28;100.00;100603.39;108692;1262;61819;-55
2024/03/06 09:09:38;;;;;;;34.30;21.00;;;;;;;3.31;100.00;100606.93;108756;1257;59790;-54
2024/03/06 09:12:11;;;;;;;36.00;22.60;;;;;;;3.34;100.00;100605.12;107443;1261;74352;-55
2024/03/06 09:14:39;;;;;;;29.70;20.60;;;;;;;3.37;100.00;100606.89;108772;1259;67207;-54
2024/03/06 09:17:09;;;;;;;31.70;19.00;;;;;;;3.39;100.00;100608.65;108752;1257;72716;-55
2024/03/06 09:19:36;;;;;;;31.00;18.70;;;;;;;3.46;100.00;100604.19;108822;1257;58895;-55
2024/03/06 09:22:07;;;;;;;30.70;19.40;;;;;;;3.53;100.00;100603.24;107248;1257;60559;-55
2024/03/06 09:24:40;;;;;;;33.70;20.90;;;;;;;3.60;100.00;100604.79;105965;1257;72650;-53
2024/03/06 09:27:07;;;;;;;35.40;21.60;;;;;;;3.61;100.00;100607.27;105936;1260;67045;-55
2024/03/06 09:29:35;;;;;;;35.30;19.30;;;;;;;3.59;100.00;100610.83;105868;1257;72755;-55
2024/03/06 09:32:02;;;;;;;34.90;20.70;;;;;;;3.61;100.00;100615.80;108787;1256;59544;-55
2024/03/06 09:34:30;;;;;;;31.80;18.00;;;;;;;3.64;100.00;100619.15;106606;1260;60607;-55
2024/03/06 09:36:57;;;;;;;27.10;16.40;;;;;;;3.60;100.00;100622.73;105764;1258;73965;-56
2024/03/06 09:39:24;;;;;;;27.80;18.50;;;;;;;3.48;100.00;100624.04;105929;1264;67085;-55
2024/03/06 09:41:53;;;;;;;23.00;16.90;;;;;;;3.36;100.00;100624.11;105900;1270;71928;-55
2024/03/06 09:44:20;;;;;;;32.10;18.90;;;;;;;3.35;100.00;100630.31;106001;1262;61461;-55
2024/03/06 09:46:48;;;;;;;28.70;18.60;;;;;;;3.39;100.00;100626.21;105893;1257;62133;-58
2024/03/06 09:49:18;;;;;;;30.50;19.20;;;;;;;3.41;100.00;100628.14;105911;1261;73914;-56
2024/03/06 09:51:53;;;;;;;28.60;19.10;;;;;;;3.45;100.00;100631.15;106248;1257;67093;-53
2024/03/06 09:54:20;;;;;;;27.00;17.80;;;;;;;3.43;100.00;100631.88;105838;1260;72826;-55
2024/03/06 09:56:48;;;;;;;28.90;19.80;;;;;;;3.30;100.00;100632.29;105858;1260;59688;-58
2024/03/06 09:59:15;;;;;;;26.00;18.50;;;;;;;3.22;100.00;100637.84;105884;1269;60418;-55
2024/03/06 10:01:56;;;;;;;26.20;17.40;;;;;;;3.21;100.00;100632.34;105895;1264;72823;-56
2024/03/06 10:04:27;;;;;;;33.10;18.30;;;;;;;3.24;100.00;100636.92;106041;1260;67227;-55
2024/03/06 10:06:58;;;;;;;27.70;18.80;;;;;;;3.25;100.00;100642.06;106453;1258;72999;-56
2024/03/06 10:09:26;;;;;;;25.20;17.80;;;;;;;3.26;100.00;100646.67;106041;1256;60339;-54
2024/03/06 10:11:53;;;;;;;30.80;20.50;;;;;;;3.24;100.00;100647.92;105870;1256;61456;-56
2024/03/06 10:14:21;;;;;;;30.80;21.00;;;;;;;3.19;100.00;100646.89;106186;1256;72893;-53
2024/03/06 10:16:56;;;;;;;26.40;17.60;;;;;;;3.15;100.00;100648.31;105876;1258;67520;-54
2024/03/06 10:19:28;;;;;;;35.30;19.80;;;;;;;3.07;100.00;100650.30;107199;1257;73151;-57
2024/03/06 10:21:56;;;;;;;28.70;19.10;;;;;;;2.97;100.00;100652.47;106638;1256;60403;-54
2024/03/06 10:24:25;;;;;;;33.10;20.30;;;;;;;2.93;100.00;100654.61;106290;1260;60628;-52
2024/03/06 10:26:55;;;;;;;28.10;19.50;;;;;;;2.90;100.00;100656.03;105912;1269;72699;-56
2024/03/06 10:29:24;;;;;;;24.90;16.40;;;;;;;2.87;100.00;100652.86;106133;1260;69224;-54
2024/03/06 10:31:54;;;;;;;27.90;19.20;;;;;;;2.88;100.00;100647.00;106211;1259;72693;-55
2024/03/06 10:34:26;;;;;;;26.20;17.50;;;;;;;2.95;100.00;100644.33;106079;1256;61264;-56
2024/03/06 10:36:58;;;;;;;29.40;18.30;;;;;;;3.05;100.00;100639.14;105965;1266;60706;-54
2024/03/06 10:39:26;;;;;;;27.90;19.40;;;;;;;3.18;100.00;100640.68;105999;1256;74093;-56
2024/03/06 10:41:55;;;;;;;23.60;17.10;;;;;;;3.26;100.00;100647.73;106204;1260;66961;-52
2024/03/06 10:44:25;;;;;;;25.10;17.40;;;;;;;3.33;100.00;100652.85;105908;1259;71481;-56
2024/03/06 10:47:03;;;;;;;29.30;18.90;;;;;;;3.37;100.00;100653.02;106032;1254;60385;-54
2024/03/06 10:49:32;;;;;;;28.80;19.20;;;;;;;3.38;100.00;100653.02;106069;1254;60201;-56
2024/03/06 10:52:00;;;;;;;31.40;20.10;;;;;;;3.38;100.00;100650.71;106021;1257;72680;-55
2024/03/06 10:54:29;;;;;;;31.90;20.10;;;;;;;3.31;100.00;100655.17;105971;1256;66978;-54
2024/03/06 10:56:57;;;;;;;34.50;21.10;;;;;;;3.22;100.00;100654.50;106383;1259;74319;-55
2024/03/06 10:59:27;;;;;;;110.70;41.30;;;;;;;3.14;100.00;100653.30;105966;1271;60745;-56
2024/03/06 11:02:00;;;;;;;109.90;37.50;;;;;;;3.05;100.00;100652.62;105933;1257;60461;-56
2024/03/06 11:04:30;;;;;;;52.10;24.10;;;;;;;2.95;100.00;100663.29;106043;1260;73917;-54
2024/03/06 11:06:59;;;;;;;28.30;17.90;;;;;;;2.86;100.00;100661.89;106205;1260;66911;-52
2024/03/06 11:09:27;;;;;;;24.80;16.90;;;;;;;2.80;100.00;100660.49;105979;1264;72818;-55
2024/03/06 11:11:55;;;;;;;25.20;17.20;;;;;;;2.78;100.00;100666.89;105899;1261;61456;-54
2024/03/06 11:14:24;;;;;;;27.10;19.30;;;;;;;2.71;100.00;100664.41;106138;1256;60390;-55
2024/03/06 11:17:02;;;;;;;27.60;18.00;;;;;;;2.71;100.00;100668.14;106368;1256;74913;-53